Time;durP1;ratioP1;P1;durP2;ratioP2;P2;SDS_P1;SDS_P2;PMS_P1;PMS_P2;Temp;Humidity;BMP_temperature;BMP_pressure;BME280_temperature;BME280_humidity;BME280_pressure;Samples;Min_cycle;Max_cycle;Signal;HPM_P1;HPM_P2
2022/11/25 00:01:31;;;;;;;111.78;53.00;;;3.20;99.90;;;;;;4961881;28;20042;-76
2022/11/25 00:03:58;;;;;;;50.03;22.55;;;3.20;99.90;;;;;;4961603;28;20125;-76
2022/11/25 00:06:33;;;;;;;71.00;27.80;;;3.20;99.90;;;;;;4968566;28;20452;-76
2022/11/25 00:09:07;;;;;;;64.00;30.88;;;3.20;99.90;;;;;;4945352;28;20372;-76
2022/11/25 00:11:35;;;;;;;231.10;110.28;;;3.20;99.90;;;;;;4972901;28;20050;-76
2022/11/25 00:14:02;;;;;;;102.45;46.15;;;3.10;99.90;;;;;;4973581;28;20039;-76
2022/11/25 00:16:29;;;;;;;117.00;52.40;;;3.20;99.90;;;;;;4978651;28;20076;-76
2022/11/25 00:18:57;;;;;;;43.97;20.23;;;3.20;99.90;;;;;;4974290;28;20046;-76
2022/11/25 00:21:27;;;;;;;70.97;30.52;;;3.30;99.90;;;;;;4963363;28;20042;-76
2022/11/25 00:23:57;;;;;;;39.47;17.75;;;3.30;99.90;;;;;;4960411;28;20046;-77
2022/11/25 00:26:25;;;;;;;32.65;16.83;;;3.20;99.90;;;;;;4981348;28;20053;-77
2022/11/25 00:28:53;;;;;;;40.35;16.23;;;3.30;99.90;;;;;;4975380;28;20104;-76
2022/11/25 00:31:23;;;;;;;42.03;18.10;;;3.40;99.90;;;;;;4979899;28;20030;-76
2022/11/25 00:33:50;;;;;;;113.18;53.03;;;3.40;99.90;;;;;;4959971;28;20563;-76
2022/11/25 00:36:36;;;;;;;117.72;55.85;;;3.50;99.90;;;;;;4958131;28;20049;-76
2022/11/25 00:39:11;;;;;;;57.15;27.17;;;3.60;99.90;;;;;;4970981;28;20088;-76
2022/11/25 00:44:39;;;;;;;;;;;3.60;99.90;;;;;;4978966;28;20073;-77
2022/11/25 00:47:12;;;;;;;37.40;16.40;;;3.50;99.90;;;;;;4957210;28;19929;-77
2022/11/25 00:49:52;;;;;;;83.45;39.65;;;3.50;99.90;;;;;;4959861;28;20054;-76
2022/11/25 00:52:26;;;;;;;37.25;16.40;;;3.50;99.90;;;;;;4956346;28;20050;-77
2022/11/25 00:54:53;;;;;;;51.95;25.50;;;3.60;99.90;;;;;;4972880;28;20054;-77
2022/11/25 00:57:22;;;;;;;382.48;213.65;;;3.70;99.90;;;;;;4975088;28;20131;-76
2022/11/25 00:59:49;;;;;;;255.57;140.48;;;3.70;99.90;;;;;;4960473;28;20080;-76
2022/11/25 01:02:17;;;;;;;57.83;25.02;;;3.80;99.90;;;;;;4962616;28;20524;-75
2022/11/25 01:04:45;;;;;;;47.80;22.70;;;3.80;99.90;;;;;;4959741;28;20074;-77
2022/11/25 01:07:14;;;;;;;24.90;14.82;;;3.70;99.90;;;;;;4960771;28;20125;-77
2022/11/25 01:09:41;;;;;;;205.93;102.80;;;3.80;99.90;;;;;;4977654;28;20042;-77
2022/11/25 01:12:08;;;;;;;61.10;30.63;;;3.90;99.90;;;;;;4962407;28;20134;-76
2022/11/25 01:14:35;;;;;;;39.75;24.50;;;3.90;99.90;;;;;;4962385;28;20133;-77
2022/11/25 01:17:02;;;;;;;31.05;15.50;;;3.90;99.90;;;;;;4945098;28;20105;-77
2022/11/25 01:19:31;;;;;;;126.60;64.82;;;3.90;99.90;;;;;;4964961;28;20049;-76
2022/11/25 01:21:59;;;;;;;80.82;38.63;;;3.90;99.90;;;;;;4963896;28;20595;-76
2022/11/25 01:24:25;;;;;;;44.83;16.67;;;3.90;99.90;;;;;;4979568;28;20177;-76
2022/11/25 01:26:54;;;;;;;48.58;25.98;;;3.90;99.90;;;;;;4967231;28;20042;-76
2022/11/25 01:29:21;;;;;;;35.72;16.63;;;3.90;99.90;;;;;;4962872;28;20072;-76
2022/11/25 01:31:49;;;;;;;45.92;21.95;;;3.80;99.90;;;;;;4961055;28;20125;-77
2022/11/25 01:34:21;;;;;;;107.68;56.55;;;3.80;99.90;;;;;;4978018;28;20077;-76
2022/11/25 01:36:49;;;;;;;63.30;28.67;;;3.80;99.90;;;;;;4960873;28;20039;-76
2022/11/25 01:39:21;;;;;;;38.22;16.75;;;3.80;99.90;;;;;;4977288;28;20503;-77
2022/11/25 01:41:54;;;;;;;200.80;107.13;;;3.80;99.90;;;;;;4971065;28;20041;-76
2022/11/25 01:44:24;;;;;;;52.47;21.52;;;3.80;99.90;;;;;;4973784;28;20038;-76
2022/11/25 01:47:28;;;;;;;37.08;15.82;;;3.80;99.90;;;;;;4951979;28;20064;-76
2022/11/25 01:50:06;;;;;;;;;;;3.90;99.90;;;;;;4961791;28;20141;-77
2022/11/25 01:52:39;;;;;;;75.32;38.30;;;3.90;99.90;;;;;;4954243;28;20052;-76
2022/11/25 01:55:14;;;;;;;431.00;229.85;;;3.90;99.90;;;;;;4976711;28;20046;-76
2022/11/25 01:57:54;;;;;;;34.58;15.75;;;3.90;99.90;;;;;;4950484;28;20047;-76
2022/11/25 02:00:23;;;;;;;74.35;36.78;;;4.00;99.90;;;;;;4974727;28;20632;-76
2022/11/25 02:02:53;;;;;;;29.55;16.10;;;4.00;99.90;;;;;;4972379;28;20054;-76
2022/11/25 02:05:45;;;;;;;34.78;14.18;;;4.10;99.90;;;;;;4957790;28;20046;-77
2022/11/25 02:08:13;;;;;;;32.50;15.73;;;4.00;99.90;;;;;;4962021;28;20047;-77
2022/11/25 02:10:42;;;;;;;30.92;16.70;;;4.00;99.90;;;;;;4961537;28;20126;-77
2022/11/25 02:13:10;;;;;;;40.10;16.58;;;3.90;99.90;;;;;;4963375;28;20125;-77
2022/11/25 02:15:36;;;;;;;157.70;83.53;;;3.90;99.90;;;;;;4960572;28;20047;-77
2022/11/25 02:18:04;;;;;;;36.72;16.55;;;4.00;99.90;;;;;;4974191;28;20053;-77
2022/11/25 02:20:31;;;;;;;40.08;17.95;;;4.10;99.90;;;;;;4975552;28;20058;-75
2022/11/25 02:23:13;;;;;;;35.80;17.02;;;4.10;99.90;;;;;;4975525;28;20038;-76
2022/11/25 02:25:43;;;;;;;31.58;16.67;;;4.10;99.90;;;;;;4958906;28;20049;-76
2022/11/25 02:28:17;;;;;;;31.90;18.35;;;4.10;99.90;;;;;;4970821;28;20141;-76
2022/11/25 02:30:45;;;;;;;25.27;17.08;;;4.10;99.90;;;;;;4971104;28;20049;-75
2022/11/25 02:33:13;;;;;;;35.75;16.40;;;4.10;99.90;;;;;;4960491;28;20133;-76
2022/11/25 02:35:51;;;;;;;36.95;16.98;;;4.20;99.90;;;;;;4960044;28;20121;-76
2022/11/25 02:38:42;;;;;;;34.03;16.63;;;4.10;99.90;;;;;;4974962;28;20043;-76
2022/11/25 02:41:09;;;;;;;33.22;16.45;;;4.00;99.90;;;;;;4960425;28;20476;-77
2022/11/25 02:43:37;;;;;;;41.65;16.75;;;4.00;99.90;;;;;;4958888;28;20039;-76
2022/11/25 02:46:08;;;;;;;36.47;17.27;;;4.10;99.90;;;;;;4944705;28;20511;-76
2022/11/25 02:48:36;;;;;;;32.35;17.13;;;4.20;99.90;;;;;;4952916;28;20061;-76
2022/11/25 02:51:27;;;;;;;34.92;16.23;;;4.20;99.90;;;;;;4957306;28;20049;-76
2022/11/25 02:53:55;;;;;;;24.00;16.25;;;4.30;99.90;;;;;;4958931;28;20153;-77
2022/11/25 02:56:26;;;;;;;41.45;16.83;;;4.30;99.90;;;;;;4961371;28;20129;-77
2022/11/25 02:58:53;;;;;;;35.53;15.88;;;4.40;99.90;;;;;;4963366;28;20050;-77
2022/11/25 03:01:20;;;;;;;36.17;16.35;;;4.50;99.90;;;;;;4961910;28;20549;-77
2022/11/25 03:03:48;;;;;;;34.88;15.68;;;4.50;99.90;;;;;;4960359;28;20051;-78
2022/11/25 03:06:15;;;;;;;37.35;15.55;;;4.50;99.90;;;;;;4978018;28;20495;-78
2022/11/25 03:08:42;;;;;;;33.38;17.00;;;4.60;99.90;;;;;;4951288;28;20042;-77
2022/11/25 03:11:11;;;;;;;23.50;17.15;;;4.60;99.90;;;;;;4957487;28;20038;-77
2022/11/25 03:13:38;;;;;;;30.52;15.75;;;4.60;99.90;;;;;;4962399;28;20042;-77
2022/11/25 03:16:05;;;;;;;31.88;17.20;;;4.70;99.90;;;;;;4958083;28;20050;-78
2022/11/25 03:18:35;;;;;;;38.35;16.48;;;4.70;99.90;;;;;;4975310;28;20026;-78
2022/11/25 03:21:02;;;;;;;34.10;16.88;;;4.70;99.90;;;;;;4975243;28;20045;-78
2022/11/25 03:23:29;;;;;;;32.08;17.45;;;4.70;99.90;;;;;;4990020;28;20066;-78
2022/11/25 03:25:55;;;;;;;33.75;17.90;;;4.70;99.90;;;;;;4983187;28;20038;-77
2022/11/25 03:28:22;;;;;;;36.17;17.55;;;4.70;99.90;;;;;;4969599;28;20465;-77
2022/11/25 03:30:49;;;;;;;32.85;18.30;;;4.70;99.90;;;;;;4949658;28;20054;-78
2022/11/25 03:33:16;;;;;;;33.22;18.27;;;4.70;99.90;;;;;;4967198;28;20496;-79
2022/11/25 03:35:44;;;;;;;33.10;18.10;;;4.70;99.90;;;;;;4965618;28;20046;-78
2022/11/25 03:38:10;;;;;;;33.65;19.13;;;4.70;99.90;;;;;;4984290;28;20043;-77
2022/11/25 03:40:37;;;;;;;30.55;17.23;;;4.70;99.90;;;;;;4966939;28;20140;-78
2022/11/25 03:43:04;;;;;;;34.35;18.60;;;4.70;99.90;;;;;;4949046;28;20860;-78
2022/11/25 03:45:30;;;;;;;35.10;18.65;;;4.70;99.90;;;;;;4961908;28;20116;-77
2022/11/25 03:48:00;;;;;;;31.30;17.98;;;4.70;99.90;;;;;;4959378;28;20510;-78
2022/11/25 03:50:27;;;;;;;37.05;18.90;;;4.80;99.90;;;;;;4962703;28;20046;-78
2022/11/25 03:52:54;;;;;;;41.65;18.85;;;4.70;99.90;;;;;;4966620;28;20133;-78
2022/11/25 03:55:20;;;;;;;39.03;19.55;;;4.70;99.90;;;;;;4966492;28;20421;-78
2022/11/25 03:57:48;;;;;;;29.20;18.17;;;4.80;99.90;;;;;;4963800;28;20046;-77
2022/11/25 04:00:16;;;;;;;33.63;19.63;;;4.80;99.90;;;;;;4964500;28;20054;-77
2022/11/25 04:03:11;;;;;;;40.33;18.83;;;4.70;99.90;;;;;;4970888;28;20052;-78
2022/11/25 04:05:38;;;;;;;39.47;18.45;;;4.70;99.90;;;;;;4960813;28;20116;-77
2022/11/25 04:08:06;;;;;;;34.22;18.85;;;4.70;99.90;;;;;;4963772;28;20051;-78
2022/11/25 04:10:34;;;;;;;43.60;20.38;;;4.70;99.90;;;;;;4954026;28;20043;-77
2022/11/25 04:13:02;;;;;;;30.45;16.75;;;4.60;99.90;;;;;;4972291;28;20054;-77
2022/11/25 04:15:36;;;;;;;42.25;18.35;;;4.60;99.90;;;;;;4964019;28;20066;-78
2022/11/25 04:18:04;;;;;;;38.08;17.65;;;4.60;99.90;;;;;;4965037;28;20077;-78
2022/11/25 04:20:32;;;;;;;37.00;18.60;;;4.50;99.90;;;;;;4958785;28;20043;-78
2022/11/25 04:23:05;;;;;;;40.42;20.15;;;4.70;99.90;;;;;;4949809;28;20135;-78
2022/11/25 04:25:35;;;;;;;43.55;20.33;;;4.70;99.90;;;;;;4951416;28;20043;-77
2022/11/25 04:28:08;;;;;;;36.55;19.02;;;4.70;99.90;;;;;;4962447;28;20050;-77
2022/11/25 04:30:36;;;;;;;33.30;17.92;;;4.70;99.90;;;;;;4960812;28;20279;-77
2022/11/25 04:33:03;;;;;;;43.80;19.85;;;4.80;99.90;;;;;;4964498;28;20081;-77
2022/11/25 04:35:30;;;;;;;37.65;20.58;;;4.80;99.90;;;;;;4952358;28;20054;-78
2022/11/25 04:37:56;;;;;;;47.33;20.70;;;4.80;99.90;;;;;;4963583;28;20555;-78
2022/11/25 04:40:24;;;;;;;41.70;19.65;;;4.80;99.90;;;;;;4964515;28;20081;-78
2022/11/25 04:43:01;;;;;;;36.63;18.63;;;4.90;99.90;;;;;;4947644;28;20042;-78
2022/11/25 04:45:39;;;;;;;36.63;19.42;;;4.90;99.90;;;;;;4961891;28;20042;-77
2022/11/25 04:48:26;;;;;;;45.70;19.65;;;4.90;99.90;;;;;;4957243;28;20098;-78
2022/11/25 04:50:53;;;;;;;45.17;21.70;;;5.00;99.90;;;;;;4958338;28;20085;-78
2022/11/25 04:53:21;;;;;;;38.25;19.45;;;5.00;99.90;;;;;;4961806;28;20066;-78
2022/11/25 04:55:47;;;;;;;39.63;20.75;;;5.00;99.90;;;;;;4960391;28;20061;-77
2022/11/25 04:59:38;;;;;;;39.90;19.42;;;5.10;99.90;;;;;;4962981;28;20059;-77
2022/11/25 05:01:02;;;;;;;34.15;18.88;;;5.10;99.90;;;;;;4976859;28;20074;-77
2022/11/25 05:03:30;;;;;;;41.70;18.90;;;5.20;99.90;;;;;;4978528;28;20046;-77
2022/11/25 05:05:57;;;;;;;42.70;18.67;;;5.20;99.90;;;;;;4960344;28;20509;-78
2022/11/25 05:08:23;;;;;;;35.67;18.67;;;5.30;99.90;;;;;;4963585;28;20201;-77
2022/11/25 05:10:50;;;;;;;37.53;19.55;;;5.30;99.90;;;;;;4959925;28;20039;-78
2022/11/25 05:13:17;;;;;;;34.90;18.05;;;5.30;99.90;;;;;;4949231;28;20045;-77
2022/11/25 05:15:45;;;;;;;46.08;20.98;;;5.30;99.90;;;;;;4960715;28;20046;-77
2022/11/25 05:18:13;;;;;;;43.65;20.15;;;5.30;99.90;;;;;;4964181;28;20050;-76
2022/11/25 05:20:43;;;;;;;40.97;20.33;;;5.30;99.90;;;;;;4969307;28;20563;-76
2022/11/25 05:23:12;;;;;;;43.33;20.95;;;5.40;99.90;;;;;;4951189;28;20153;-77
2022/11/25 05:25:38;;;;;;;35.50;19.73;;;5.40;99.90;;;;;;4956469;28;20046;-77
2022/11/25 05:28:23;;;;;;;37.15;20.77;;;5.30;99.90;;;;;;4948534;28;20050;-76
2022/11/25 05:30:50;;;;;;;40.55;21.83;;;5.30;99.90;;;;;;4960678;28;20692;-76
2022/11/25 05:33:17;;;;;;;39.42;20.88;;;5.30;99.90;;;;;;4973907;28;20063;-76
2022/11/25 05:36:00;;;;;;;44.30;20.33;;;5.30;99.90;;;;;;4976785;28;20042;-76
2022/11/25 05:38:39;;;;;;;;;;;5.40;99.90;;;;;;4972122;28;20051;-76
2022/11/25 05:41:09;;;;;;;46.50;21.27;;;5.50;99.90;;;;;;4961705;28;19938;-76
2022/11/25 05:43:38;;;;;;;48.15;23.02;;;5.50;99.90;;;;;;4975106;28;20129;-75
2022/11/25 05:46:06;;;;;;;42.22;20.88;;;5.50;99.90;;;;;;4961142;28;20511;-75
2022/11/25 05:48:35;;;;;;;44.78;22.58;;;5.60;99.90;;;;;;4962196;28;21193;-76
2022/11/25 05:51:02;;;;;;;41.90;21.17;;;5.60;99.90;;;;;;4961086;28;20046;-75
2022/11/25 05:53:30;;;;;;;38.05;20.25;;;5.70;99.90;;;;;;4957790;28;20047;-76
2022/11/25 05:56:04;;;;;;;34.15;18.85;;;5.60;99.90;;;;;;4975755;28;20038;-75
2022/11/25 05:59:01;;;;;;;34.13;19.70;;;5.60;99.90;;;;;;4962913;28;20103;-76
2022/11/25 06:01:41;;;;;;;40.35;21.25;;;5.70;99.90;;;;;;4958455;28;20049;-75
2022/11/25 06:04:09;;;;;;;41.28;22.95;;;5.70;99.90;;;;;;4958594;28;20051;-76
2022/11/25 06:06:35;;;;;;;36.30;20.75;;;5.70;99.90;;;;;;4961823;28;20653;-76
2022/11/25 06:09:03;;;;;;;39.72;23.02;;;5.80;99.90;;;;;;4981042;28;20496;-75
2022/11/25 06:11:32;;;;;;;37.30;21.25;;;5.80;99.90;;;;;;4962218;28;20526;-75
2022/11/25 06:13:58;;;;;;;34.40;20.67;;;5.70;99.90;;;;;;4947323;28;20061;-76
2022/11/25 06:16:27;;;;;;;38.58;20.27;;;5.70;99.90;;;;;;4969754;28;20112;-76
2022/11/25 06:19:08;;;;;;;40.83;20.40;;;5.70;99.90;;;;;;4961936;28;20062;-76
2022/11/25 06:21:36;;;;;;;37.42;22.20;;;5.80;99.90;;;;;;4960356;28;20037;-76
2022/11/25 06:24:03;;;;;;;30.50;19.75;;;5.80;99.90;;;;;;4943136;28;20050;-76
2022/11/25 06:26:32;;;;;;;29.52;19.83;;;5.80;99.90;;;;;;4963714;28;20042;-76
2022/11/25 06:28:59;;;;;;;30.80;19.88;;;5.80;99.90;;;;;;4966297;28;20263;-76
2022/11/25 06:31:26;;;;;;;34.15;21.50;;;5.90;99.90;;;;;;4968615;28;20053;-75
2022/11/25 06:34:05;;;;;;;35.40;21.23;;;5.90;99.90;;;;;;4962091;28;20384;-76
2022/11/25 06:36:32;;;;;;;38.55;22.98;;;5.90;99.90;;;;;;4960546;28;20070;-76
2022/11/25 06:38:58;;;;;;;34.70;23.48;;;6.00;99.90;;;;;;4979172;28;20035;-76
2022/11/25 06:41:25;;;;;;;36.47;22.38;;;6.00;99.90;;;;;;4958474;28;20050;-76
2022/11/25 06:43:52;;;;;;;34.50;22.23;;;6.00;99.90;;;;;;4959954;28;20256;-75
2022/11/25 06:46:19;;;;;;;32.92;22.33;;;6.00;99.90;;;;;;4966217;28;20069;-76
2022/11/25 06:48:51;;;;;;;33.50;22.02;;;6.00;99.90;;;;;;4958745;28;20055;-76
2022/11/25 06:51:18;;;;;;;36.10;20.63;;;6.00;99.90;;;;;;4949966;28;20531;-75
2022/11/25 06:53:45;;;;;;;35.70;20.05;;;5.90;99.90;;;;;;4960881;28;20464;-75
2022/11/25 06:56:13;;;;;;;39.85;20.83;;;6.00;99.90;;;;;;4963946;28;20089;-76
2022/11/25 06:58:41;;;;;;;33.13;20.63;;;6.00;99.90;;;;;;4963782;28;20041;-76
2022/11/25 07:01:11;;;;;;;47.72;23.02;;;6.00;99.90;;;;;;4962578;28;20081;-76
2022/11/25 07:03:40;;;;;;;41.33;21.90;;;6.00;99.90;;;;;;4979192;28;20035;-76
2022/11/25 07:06:08;;;;;;;30.15;18.52;;;6.00;99.90;;;;;;4965454;28;20057;-76
2022/11/25 07:08:35;;;;;;;34.40;20.02;;;6.00;99.90;;;;;;4965016;28;20065;-76
2022/11/25 07:11:08;;;;;;;34.25;18.73;;;6.00;99.90;;;;;;4960699;28;20412;-76
2022/11/25 07:13:35;;;;;;;30.58;18.80;;;6.00;99.90;;;;;;4979210;28;20046;-76
2022/11/25 07:16:04;;;;;;;39.08;18.35;;;6.10;99.90;;;;;;4964040;28;20434;-76
2022/11/25 07:18:34;;;;;;;39.28;20.17;;;6.10;99.90;;;;;;4982078;28;20033;-76
2022/11/25 07:21:06;;;;;;;42.42;19.15;;;6.10;99.90;;;;;;4970108;28;20154;-75
2022/11/25 07:23:34;;;;;;;43.05;19.45;;;6.10;99.90;;;;;;4966134;28;20053;-76
2022/11/25 07:26:12;;;;;;;31.65;18.65;;;6.20;99.90;;;;;;4966367;28;20038;-76
2022/11/25 07:28:40;;;;;;;29.90;17.90;;;6.20;99.90;;;;;;4958566;28;20052;-76
2022/11/25 07:31:17;;;;;;;36.38;19.15;;;6.20;99.90;;;;;;4956476;28;20050;-76
2022/11/25 07:34:01;;;;;;;27.20;17.15;;;6.20;99.90;;;;;;4979665;28;20082;-76
2022/11/25 07:36:29;;;;;;;26.58;17.10;;;6.30;99.90;;;;;;4945672;28;20066;-76
2022/11/25 07:38:58;;;;;;;21.77;17.70;;;6.30;99.90;;;;;;4976915;28;20175;-76
2022/11/25 07:41:26;;;;;;;33.80;18.92;;;6.30;99.90;;;;;;4964524;28;20042;-76
2022/11/25 07:43:55;;;;;;;34.95;18.77;;;6.30;99.90;;;;;;4964377;28;20066;-77
2022/11/25 07:46:30;;;;;;;32.47;17.52;;;6.30;99.90;;;;;;4968207;28;20133;-77
2022/11/25 07:49:02;;;;;;;36.47;20.52;;;6.30;99.90;;;;;;4978479;28;20439;-76
2022/11/25 07:51:33;;;;;;;22.83;20.10;;;6.40;99.90;;;;;;4961876;28;20630;-77
2022/11/25 07:54:01;;;;;;;25.83;17.42;;;6.40;99.90;;;;;;4974730;28;20038;-76
2022/11/25 07:56:28;;;;;;;28.23;16.98;;;6.40;99.90;;;;;;4975779;28;20050;-76
2022/11/25 07:58:56;;;;;;;21.80;17.15;;;6.40;99.90;;;;;;4979363;28;20117;-76
2022/11/25 08:01:23;;;;;;;30.85;16.27;;;6.50;99.90;;;;;;4964011;28;20034;-76
2022/11/25 08:03:51;;;;;;;23.80;20.05;;;6.40;99.90;;;;;;4963549;28;20623;-76
2022/11/25 08:06:21;;;;;;;33.25;21.85;;;6.40;99.90;;;;;;4962377;28;20070;-76
2022/11/25 08:08:48;;;;;;;29.67;20.70;;;6.40;99.90;;;;;;4964194;28;20050;-76
2022/11/25 08:11:19;;;;;;;30.45;22.55;;;6.50;99.90;;;;;;4944981;28;20428;-76
2022/11/25 08:13:46;;;;;;;25.92;19.48;;;6.50;99.90;;;;;;4975736;28;20046;-76
2022/11/25 08:16:16;;;;;;;28.10;20.02;;;6.50;99.90;;;;;;4963271;28;20051;-76
2022/11/25 08:18:43;;;;;;;26.40;21.42;;;6.50;99.90;;;;;;4979047;28;20070;-75
2022/11/25 08:21:12;;;;;;;45.88;30.33;;;6.50;99.90;;;;;;4981704;28;20545;-76
2022/11/25 08:23:42;;;;;;;29.33;21.90;;;6.60;99.90;;;;;;4979839;28;20556;-76
2022/11/25 08:26:18;;;;;;;30.67;20.58;;;6.60;99.90;;;;;;4961431;28;20146;-76
2022/11/25 08:28:46;;;;;;;26.95;21.40;;;6.70;99.90;;;;;;4944955;28;20066;-76
2022/11/25 08:31:20;;;;;;;23.80;20.50;;;6.60;99.90;;;;;;4962691;28;20049;-77
2022/11/25 08:33:48;;;;;;;31.70;20.90;;;6.70;99.90;;;;;;4946137;28;20057;-76
2022/11/25 08:36:16;;;;;;;28.52;22.13;;;6.60;99.90;;;;;;4975735;28;20703;-76
2022/11/25 08:38:44;;;;;;;28.65;21.70;;;6.60;99.90;;;;;;4960389;28;20046;-76
2022/11/25 08:41:20;;;;;;;25.15;20.83;;;6.60;99.90;;;;;;4977865;28;20046;-76
2022/11/25 08:43:47;;;;;;;29.48;22.27;;;6.50;99.90;;;;;;4961393;28;20137;-76
2022/11/25 08:46:20;;;;;;;31.92;22.52;;;6.60;99.90;;;;;;4963030;28;21206;-77
2022/11/25 08:48:48;;;;;;;27.38;22.23;;;6.60;99.90;;;;;;4975722;28;20054;-78
2022/11/25 08:51:20;;;;;;;29.15;22.38;;;6.50;99.90;;;;;;4976172;28;20050;-77
2022/11/25 08:53:49;;;;;;;31.55;27.33;;;6.50;99.90;;;;;;4977081;28;20049;-78
2022/11/25 08:56:18;;;;;;;37.35;28.13;;;6.50;99.90;;;;;;4960837;28;20050;-78
2022/11/25 08:58:52;;;;;;;51.55;37.22;;;6.50;99.90;;;;;;4978689;28;20393;-78
2022/11/25 09:01:20;;;;;;;38.28;26.08;;;6.50;99.90;;;;;;4958290;28;20042;-77
2022/11/25 09:03:51;;;;;;;32.75;25.50;;;6.50;99.90;;;;;;4977564;28;20112;-76
2022/11/25 09:06:18;;;;;;;29.77;23.17;;;6.50;99.90;;;;;;4959587;28;20030;-77
2022/11/25 09:08:45;;;;;;;41.28;28.42;;;6.60;99.90;;;;;;4972989;28;20065;-77
2022/11/25 09:11:13;;;;;;;36.80;31.30;;;6.60;99.90;;;;;;4961606;28;20061;-76
2022/11/25 09:13:40;;;;;;;31.83;23.65;;;6.60;99.90;;;;;;4960022;28;20133;-76
2022/11/25 09:16:08;;;;;;;28.27;22.23;;;6.70;99.90;;;;;;4961748;28;20106;-77
2022/11/25 09:18:35;;;;;;;29.80;26.52;;;6.70;99.90;;;;;;4962798;28;20042;-77
2022/11/25 09:21:11;;;;;;;42.20;27.40;;;6.70;99.90;;;;;;4965572;28;20050;-76
2022/11/25 09:23:38;;;;;;;;;;;6.80;99.90;;;;;;4974050;28;20054;-77
2022/11/25 09:26:06;;;;;;;25.52;22.92;;;6.80;99.90;;;;;;4962485;28;19922;-77
2022/11/25 09:28:34;;;;;;;38.40;23.70;;;6.90;99.90;;;;;;4979565;28;20065;-77
2022/11/25 09:31:08;;;;;;;24.50;21.50;;;6.90;99.90;;;;;;4961989;28;20050;-76
2022/11/25 09:33:35;;;;;;;25.85;21.00;;;6.90;99.90;;;;;;4958833;28;20421;-77
2022/11/25 09:36:03;;;;;;;26.90;22.60;;;7.00;99.90;;;;;;4961554;28;20042;-77
2022/11/25 09:38:29;;;;;;;23.40;21.00;;;7.00;99.90;;;;;;4959065;28;20517;-77
2022/11/25 09:41:10;;;;;;;25.73;21.60;;;7.00;99.90;;;;;;4978327;28;20643;-76
2022/11/25 09:47:13;;;;;;;28.60;22.23;;;6.90;99.90;;;;;;4972991;28;20045;-77
2022/11/25 09:50:18;;;;;;;24.40;21.98;;;7.00;99.90;;;;;;4959339;28;20100;-76
2022/11/25 09:52:58;;;;;;;28.08;23.73;;;7.00;99.90;;;;;;4946891;28;20578;-76
2022/11/25 09:55:28;;;;;;;26.55;22.90;;;7.10;99.90;;;;;;4960439;28;20046;-76
2022/11/25 09:58:11;;;;;;;26.92;24.13;;;7.20;99.90;;;;;;4977825;28;20065;-77
2022/11/25 10:00:44;;;;;;;31.90;23.60;;;7.20;99.90;;;;;;4970920;28;20126;-77
2022/11/25 10:03:40;;;;;;;27.38;23.15;;;7.20;99.90;;;;;;4963907;28;20496;-77
2022/11/25 10:06:22;;;;;;;;;;;7.20;99.90;;;;;;4959728;28;20046;-77
2022/11/25 10:08:57;;;;;;;27.27;24.05;;;7.20;99.90;;;;;;4961232;28;19933;-77
2022/11/25 10:11:23;;;;;;;28.08;22.70;;;7.20;99.90;;;;;;4947646;28;20049;-77
2022/11/25 10:14:02;;;;;;;24.83;22.13;;;7.20;99.90;;;;;;4959083;28;20042;-76
2022/11/25 10:16:36;;;;;;;25.52;22.88;;;7.20;99.90;;;;;;4946561;28;20046;-77
2022/11/25 10:19:23;;;;;;;29.25;24.67;;;7.20;99.90;;;;;;4977150;28;20047;-77
2022/11/25 10:21:51;;;;;;;25.48;22.00;;;7.20;99.90;;;;;;4977797;28;20057;-77
2022/11/25 10:24:20;;;;;;;27.73;23.52;;;7.20;99.90;;;;;;4959203;28;20047;-76
2022/11/25 10:27:00;;;;;;;35.30;24.55;;;7.20;99.90;;;;;;4980191;28;20046;-77
2022/11/25 10:29:29;;;;;;;30.77;25.40;;;7.20;99.90;;;;;;4958851;28;20061;-78
2022/11/25 10:32:21;;;;;;;32.00;27.60;;;7.30;99.90;;;;;;4978093;28;20065;-77
2022/11/25 10:34:52;;;;;;;33.50;26.55;;;7.30;99.90;;;;;;4962102;28;20054;-77
2022/11/25 10:37:28;;;;;;;33.75;27.23;;;7.50;99.90;;;;;;4965289;28;20612;-78
2022/11/25 10:39:57;;;;;;;32.92;25.65;;;7.60;99.90;;;;;;4980652;28;20046;-76
2022/11/25 10:42:26;;;;;;;32.58;25.92;;;7.60;99.90;;;;;;4979012;28;20046;-77
2022/11/25 10:44:53;;;;;;;29.08;26.08;;;7.60;99.90;;;;;;4963750;28;20115;-77
2022/11/25 10:47:35;;;;;;;46.88;41.78;;;7.60;99.90;;;;;;4963281;28;20768;-77
2022/11/25 10:50:11;;;;;;;31.95;28.20;;;7.60;99.90;;;;;;4965090;28;20074;-77
2022/11/25 10:53:07;;;;;;;33.15;27.45;;;7.60;99.90;;;;;;4960567;28;20043;-78
2022/11/25 10:55:34;;;;;;;31.48;25.55;;;7.70;99.90;;;;;;4972065;28;20055;-78
2022/11/25 10:58:26;;;;;;;29.35;25.92;;;7.60;99.90;;;;;;4985098;28;20049;-76
2022/11/25 11:01:16;;;;;;;34.88;27.58;;;7.60;99.90;;;;;;4965261;28;20145;-77
2022/11/25 11:03:52;;;;;;;29.40;23.48;;;7.60;99.90;;;;;;4975675;28;20503;-76
2022/11/25 11:06:30;;;;;;;33.90;28.05;;;7.60;99.90;;;;;;4983182;28;20043;-77
2022/11/25 11:08:57;;;;;;;33.45;28.38;;;7.60;99.90;;;;;;4967192;28;20072;-78
2022/11/25 11:11:24;;;;;;;51.40;46.00;;;7.70;99.90;;;;;;4967662;28;20049;-77
2022/11/25 11:14:09;;;;;;;132.85;97.90;;;7.70;99.90;;;;;;4961622;28;20377;-78
2022/11/25 11:16:41;;;;;;;30.50;21.77;;;7.70;99.90;;;;;;4943871;28;20042;-76
2022/11/25 11:19:24;;;;;;;54.42;39.35;;;7.60;99.90;;;;;;4962775;28;20043;-77
2022/11/25 11:21:52;;;;;;;81.47;64.47;;;7.70;99.90;;;;;;4962219;28;20248;-77
2022/11/25 11:24:24;;;;;;;107.95;77.95;;;7.80;99.90;;;;;;4965398;28;20049;-76
2022/11/25 11:27:02;;;;;;;46.05;40.92;;;7.90;99.90;;;;;;4965288;28;20542;-76
2022/11/25 11:29:29;;;;;;;37.88;31.17;;;8.00;99.90;;;;;;4977911;28;20046;-76
2022/11/25 11:32:02;;;;;;;48.15;39.00;;;8.00;99.90;;;;;;4963119;28;20408;-76
2022/11/25 11:34:47;;;;;;;35.25;31.27;;;8.10;99.90;;;;;;4966939;28;20504;-76
2022/11/25 11:37:20;;;;;;;33.85;28.70;;;8.10;99.90;;;;;;4962528;28;20135;-76
2022/11/25 11:40:00;;;;;;;29.23;23.30;;;8.10;99.90;;;;;;4964027;28;20500;-76
2022/11/25 11:42:50;;;;;;;42.40;29.10;;;8.10;99.90;;;;;;4952342;28;20035;-76
2022/11/25 11:45:23;;;;;;;43.60;35.83;;;8.20;99.90;;;;;;4964803;28;20053;-78
2022/11/25 11:48:09;;;;;;;29.10;25.58;;;8.20;99.90;;;;;;4975492;28;20678;-78
2022/11/25 11:50:42;;;;;;;35.22;31.27;;;8.30;99.90;;;;;;4970944;28;20049;-76
2022/11/25 11:53:43;;;;;;;29.08;25.85;;;8.30;99.90;;;;;;4966091;28;20047;-77
2022/11/25 11:56:36;;;;;;;25.52;23.13;;;8.30;99.90;;;;;;4961417;28;20042;-77
2022/11/25 11:59:12;;;;;;;29.13;25.20;;;8.40;99.90;;;;;;4967786;28;20129;-78
2022/11/25 12:02:14;;;;;;;22.27;19.17;;;8.40;99.90;;;;;;4966160;28;20054;-76
2022/11/25 12:04:59;;;;;;;25.75;23.02;;;8.50;99.90;;;;;;4962033;28;20039;-77
2022/11/25 12:07:26;;;;;;;23.42;21.08;;;8.70;99.90;;;;;;4977502;28;20053;-76
2022/11/25 12:10:13;;;;;;;24.83;22.48;;;8.70;99.90;;;;;;4974581;28;20153;-76
2022/11/25 12:13:16;;;;;;;22.10;19.98;;;8.80;99.90;;;;;;4957384;28;20078;-76
2022/11/25 12:15:57;;;;;;;23.92;20.73;;;8.90;99.90;;;;;;4956476;28;20046;-76
2022/11/25 12:18:52;;;;;;;23.85;21.40;;;9.00;99.90;;;;;;4962167;28;20062;-76
2022/11/25 12:21:56;;;;;;;25.63;22.73;;;9.00;99.90;;;;;;4959068;28;20051;-76
2022/11/25 12:24:44;;;;;;;24.92;22.52;;;9.10;99.90;;;;;;4976503;28;20040;-76
2022/11/25 12:27:35;;;;;;;27.23;22.20;;;9.10;99.90;;;;;;4952608;28;20057;-76
2022/11/25 12:30:14;;;;;;;24.67;20.88;;;9.20;99.90;;;;;;4946423;28;20135;-75
2022/11/25 12:33:02;;;;;;;22.75;20.40;;;9.30;99.90;;;;;;4980615;28;20038;-76
2022/11/25 12:35:44;;;;;;;24.15;21.90;;;9.40;99.90;;;;;;4971222;28;20042;-75
2022/11/25 12:38:34;;;;;;;25.98;23.20;;;9.60;99.90;;;;;;4975537;28;20053;-75
2022/11/25 12:41:38;;;;;;;25.40;23.10;;;9.70;99.90;;;;;;4962140;28;20047;-75
2022/11/25 12:44:33;;;;;;;24.67;22.40;;;9.70;99.90;;;;;;4965769;28;20128;-76
2022/11/25 12:47:01;;;;;;;22.65;20.63;;;9.50;99.90;;;;;;4957436;28;20078;-77
2022/11/25 12:49:35;;;;;;;24.85;22.73;;;9.30;99.90;;;;;;4963596;28;20511;-75
2022/11/25 12:52:20;;;;;;;22.63;20.40;;;9.20;99.90;;;;;;4959948;28;20046;-76
2022/11/25 12:54:59;;;;;;;24.48;21.45;;;9.20;99.90;;;;;;4960107;28;20311;-75
2022/11/25 12:57:39;;;;;;;21.38;19.50;;;9.30;99.90;;;;;;4965083;28;20057;-77
2022/11/25 13:00:25;;;;;;;24.75;22.33;;;9.20;99.90;;;;;;4939235;28;20092;-76
2022/11/25 13:03:41;;;;;;;24.25;22.13;;;9.20;99.90;;;;;;4954519;28;20046;-75
2022/11/25 13:06:23;;;;;;;23.67;21.88;;;9.20;99.90;;;;;;4961778;28;20049;-76
2022/11/25 13:09:17;;;;;;;23.27;20.88;;;9.20;99.90;;;;;;4974694;28;20050;-75
2022/11/25 13:12:03;;;;;;;25.77;22.40;;;9.20;99.90;;;;;;4933356;28;20049;-74
2022/11/25 13:14:49;;;;;;;26.85;22.52;;;9.10;99.90;;;;;;4973255;28;20054;-75